• Join FlightAware (Why Join?)
  • Login
  • US Flag 
12:34AM EDT


 

Airport Tracker/Info


-or-


 

Live Flight TrackerFlight Track Log ✈ SWA378 ✈ 17-May-2013 ✈ KORF - KBWI

Flight Track Log - Related Links

Times and Time Zones

All times are in EDT time to prevent confusion due to time zone crossing. See the SWA378 flight status page for this flight to view local times or setup timezone preferences in your user account.

Time Position Orientation Groundspeed Altitude Reporting Facility
EDT Latitude Longitude Course Direction KTS MPH feet Rate Location/Type
09:21PM 36.9119 -76.1842 37° Northeast 145 167 1,600  Level Washington Center
09:22PM 36.9517 -76.1664 20° North 230 265 3,800 3,000 Climbing Washington Center
09:23PM 36.9889 -76.2289 307° West 209 241 6,900 3,360 Climbing Washington Center
09:24PM 37.0197 -76.3125 295° West 222 255 10,500 2,940 Climbing Washington Center
09:25PM 37.0608 -76.4169 296° West 289 333 12,700 2,520 Climbing Washington Center
09:26PM 37.1522 -76.4778 332° Northwest 328 377 15,700 1,620 Climbing Washington Center
09:27PM 37.2478 -76.5233 339° North 364 419 16,000 120 Climbing Washington Center
09:28PM 37.3494 -76.5794 336° Northwest 378 435 16,000  Level Washington Center
09:29PM 37.4492 -76.6331 337° Northwest 389 448 16,000  Level Washington Center
09:30PM 37.5531 -76.6894 337° Northwest 394 453 16,000  Level Washington Center
09:31PM 37.6547 -76.7433 337° Northwest 394 453 16,000  Level Washington Center
09:32PM 37.7564 -76.7975 337° Northwest 394 453 16,000  Level Washington Center
09:33PM 37.8581 -76.8517 337° Northwest 394 453 16,000  Level Washington Center
09:34PM 37.9575 -76.9086 336° Northwest 394 453 16,000  Level Washington Center
09:35PM 38.0714 -76.9686 337° Northwest 399 459 16,000 -300 Level Washington Center
09:36PM 38.1731 -77.0233 337° Northwest 399 459 15,500 -540 Descending Washington Center
09:37PM 38.2725 -77.0753 338° Northwest 393 452 15,000 -300 Descending Washington Center
09:38PM 38.3617 -77.1222 338° Northwest 393 452 15,000 -240 Level Washington Center
09:39PM 38.4561 -77.0553 29° Northeast 350 403 14,600 -1,020 Descending Washington Center
09:40PM 38.5264 -76.9453 51° Northeast 346 398 13,000 -1,740 Descending Washington Center
09:41PM 38.5919 -76.8428 51° Northeast 354 407 11,200 -1,380 Descending Washington Center
09:42PM 38.6514 -76.7533 50° Northeast 349 402 10,300 -1,200 Descending Washington Center
09:43PM 38.7042 -76.6717 50° Northeast 318 366 8,900 -1,680 Descending Washington Center
09:43PM 38.7667 -76.5833 48° Northeast 283 326 7,200 -1,920 Descending Potomac TRACON
09:44PM 38.8167 -76.5333 38° Northeast 280 322 5,400 -1,140 Descending Potomac TRACON
09:45PM 38.8833 -76.5500 349° North 270 311 5,000 -240 Descending Potomac TRACON
09:46PM 38.9667 -76.5833 343° North 270 311 5,000 -420 Level Potomac TRACON
09:47PM 39.0000 -76.6667 297° West 267 307 4,200 -600 Descending Potomac TRACON
09:48PM 39.0333 -76.7500 297° West 270 311 3,900 -900 Descending Potomac TRACON
09:49PM 39.0833 -76.8167 314° West 286 329 2,400 -1,020 Descending Potomac TRACON
09:50PM 39.1500 -76.8000 11° North 243 280 2,000 -540 Descending Potomac TRACON
09:51PM 39.1833 -76.7500 49° Northeast 156 180 1,400 -720 Descending Potomac TRACON
09:52PM 39.1833 -76.7167 90° East 119 137 600 -840 Descending Potomac TRACON
09:54PM 39.1667 -76.6667 113° Southeast  Level FlightAware Approximate
10:01PM 39.1754 -76.6683 113° Southeast  Level Estimated
10:02PM 39.1754 -76.6683 113° Southeast  Level Estimated